CPA942 VHHH-RPLL
Flight info
| Callsign | CPA942 |
|---|---|
| Flight time | 1h 42m |
| Altitude | 37000 |
| Route | DALOL DCT NOMAN A461 CAB CAB5R |
| Aircraft | A21N/M-L/S |
Departure
| Time | 2026-05-04 15:39 |
|---|---|
| Airport | Hong Kong International Airport (VHHH) |
Arrival
| Time | 2026-05-04 17:22 |
|---|---|
| Airport | Ninoy Aquino International Airport (RPLL) |
| Time | Latitude | Longitude | Altitude | Speed | Heading |
|---|---|---|---|---|---|
| 2026-05-04 15:06 | 22.31052 | 113.92693 | 38 ft | 0 kts | 290° |
| 2026-05-04 15:26 | 22.31044 | 113.92720 | 36 ft | 4 kts | 286° |
| 2026-05-04 15:27 | 22.31037 | 113.92749 | 37 ft | 4 kts | 280° |
| 2026-05-04 15:27 | 22.31035 | 113.92806 | 38 ft | 4 kts | 253° |
| 2026-05-04 15:28 | 22.31049 | 113.92829 | 34 ft | 0 kts | 205° |
| 2026-05-04 15:28 | 22.31049 | 113.92828 | 34 ft | 0 kts | 205° |
| 2026-05-04 15:30 | 22.31023 | 113.92816 | 36 ft | 6 kts | 203° |
| 2026-05-04 15:30 | 22.30833 | 113.92685 | 38 ft | 15 kts | 254° |
| 2026-05-04 15:31 | 22.30760 | 113.92461 | 40 ft | 15 kts | 251° |
| 2026-05-04 15:31 | 22.30743 | 113.92408 | 41 ft | 6 kts | 250° |
| 2026-05-04 15:32 | 22.30615 | 113.92302 | 41 ft | 12 kts | 253° |
| 2026-05-04 15:32 | 22.30550 | 113.92102 | 43 ft | 11 kts | 250° |
| 2026-05-04 15:33 | 22.30489 | 113.91914 | 40 ft | 16 kts | 251° |
| 2026-05-04 15:34 | 22.30383 | 113.91583 | 36 ft | 17 kts | 251° |
| 2026-05-04 15:34 | 22.30342 | 113.91457 | 36 ft | 19 kts | 251° |
| 2026-05-04 15:34 | 22.30272 | 113.91240 | 36 ft | 18 kts | 251° |
| 2026-05-04 15:35 | 22.30191 | 113.90989 | 40 ft | 19 kts | 250° |
| 2026-05-04 15:35 | 22.30159 | 113.90888 | 38 ft | 14 kts | 251° |
| 2026-05-04 15:35 | 22.30124 | 113.90778 | 37 ft | 17 kts | 251° |
| 2026-05-04 15:36 | 22.30058 | 113.90578 | 37 ft | 8 kts | 251° |
| 2026-05-04 15:36 | 22.30039 | 113.90514 | 36 ft | 10 kts | 251° |
| 2026-05-04 15:36 | 22.30013 | 113.90430 | 35 ft | 13 kts | 251° |
| 2026-05-04 15:37 | 22.29986 | 113.90348 | 36 ft | 10 kts | 249° |
| 2026-05-04 15:37 | 22.29958 | 113.90270 | 37 ft | 8 kts | 249° |
| 2026-05-04 15:37 | 22.29934 | 113.90234 | 36 ft | 7 kts | 205° |
| 2026-05-04 15:37 | 22.29874 | 113.90238 | 35 ft | 10 kts | 165° |
| 2026-05-04 15:38 | 22.29826 | 113.90254 | 33 ft | 8 kts | 162° |
| 2026-05-04 15:38 | 22.29780 | 113.90283 | 32 ft | 9 kts | 106° |
| 2026-05-04 15:38 | 22.29786 | 113.90310 | 32 ft | 1 kts | 70° |
| 2026-05-04 15:38 | 22.29799 | 113.90348 | 33 ft | 23 kts | 70° |
| 2026-05-04 15:39 | 22.29958 | 113.90847 | 40 ft | 113 kts | 71° |
| 2026-05-04 15:39 | 22.30304 | 113.91900 | 110 ft | 173 kts | 72° |
| 2026-05-04 15:39 | 22.31076 | 113.94341 | 2056 ft | 175 kts | 73° |
| 2026-05-04 15:40 | 22.31458 | 113.95619 | 2922 ft | 188 kts | 73° |
| 2026-05-04 15:40 | 22.31940 | 113.97001 | 3761 ft | 205 kts | 73° |
| 2026-05-04 15:40 | 22.32422 | 113.98505 | 4694 ft | 221 kts | 72° |
| 2026-05-04 15:40 | 22.32940 | 114.00126 | 5737 ft | 234 kts | 71° |
| 2026-05-04 15:41 | 22.33498 | 114.01886 | 6735 ft | 254 kts | 71° |
| 2026-05-04 15:41 | 22.33981 | 114.03711 | 7905 ft | 259 kts | 85° |
| 2026-05-04 15:41 | 22.33711 | 114.05627 | 9131 ft | 262 kts | 112° |
| 2026-05-04 15:41 | 22.33007 | 114.07446 | 10308 ft | 267 kts | 116° |
| 2026-05-04 15:42 | 22.32255 | 114.09325 | 11378 ft | 275 kts | 116° |
| 2026-05-04 15:42 | 22.31499 | 114.11267 | 12432 ft | 283 kts | 116° |
| 2026-05-04 15:42 | 22.30742 | 114.13254 | 13480 ft | 291 kts | 116° |
| 2026-05-04 15:42 | 22.29972 | 114.15303 | 14445 ft | 298 kts | 115° |
| 2026-05-04 15:43 | 22.29192 | 114.17395 | 15409 ft | 303 kts | 115° |
| 2026-05-04 15:43 | 22.28396 | 114.19531 | 16378 ft | 309 kts | 115° |
| 2026-05-04 15:43 | 22.27590 | 114.21704 | 17333 ft | 316 kts | 115° |
| 2026-05-04 15:43 | 22.26765 | 114.23933 | 18291 ft | 322 kts | 115° |
| 2026-05-04 15:44 | 22.25941 | 114.26164 | 19125 ft | 326 kts | 115° |
| 2026-05-04 15:44 | 22.25085 | 114.28478 | 19981 ft | 330 kts | 115° |
| 2026-05-04 15:44 | 22.24038 | 114.30701 | 20573 ft | 348 kts | 130° |
| 2026-05-04 15:44 | 22.22331 | 114.32736 | 21082 ft | 375 kts | 140° |
| 2026-05-04 15:45 | 22.20395 | 114.34758 | 21504 ft | 398 kts | 141° |
| 2026-05-04 15:45 | 22.18380 | 114.36868 | 21863 ft | 416 kts | 140° |
| 2026-05-04 15:45 | 22.16287 | 114.39093 | 22404 ft | 427 kts | 139° |
| 2026-05-04 15:45 | 22.14167 | 114.41372 | 23145 ft | 432 kts | 139° |
| 2026-05-04 15:46 | 22.12035 | 114.43670 | 23851 ft | 437 kts | 139° |
| 2026-05-04 15:46 | 22.09873 | 114.45998 | 24446 ft | 441 kts | 140° |
| 2026-05-04 15:46 | 22.07692 | 114.48347 | 25017 ft | 446 kts | 140° |
| 2026-05-04 15:46 | 22.05479 | 114.50730 | 25580 ft | 451 kts | 140° |
| 2026-05-04 15:47 | 22.03246 | 114.53131 | 26132 ft | 456 kts | 140° |
| 2026-05-04 15:47 | 22.00992 | 114.55551 | 26668 ft | 461 kts | 140° |
| 2026-05-04 15:47 | 21.98699 | 114.58011 | 27210 ft | 465 kts | 140° |
| 2026-05-04 15:47 | 21.96396 | 114.60482 | 27724 ft | 469 kts | 140° |
| 2026-05-04 15:48 | 21.94070 | 114.62968 | 28245 ft | 473 kts | 140° |
| 2026-05-04 15:48 | 21.91721 | 114.65477 | 28744 ft | 477 kts | 140° |
| 2026-05-04 15:48 | 21.86972 | 114.70557 | 29730 ft | 485 kts | 140° |
| 2026-05-04 15:49 | 21.84567 | 114.73131 | 30204 ft | 489 kts | 141° |
| 2026-05-04 15:49 | 21.82150 | 114.75723 | 30624 ft | 492 kts | 140° |
| 2026-05-04 15:49 | 21.79728 | 114.78327 | 31053 ft | 495 kts | 140° |
| 2026-05-04 15:49 | 21.77281 | 114.80953 | 31511 ft | 496 kts | 140° |
| 2026-05-04 15:50 | 21.74837 | 114.83575 | 32046 ft | 496 kts | 140° |
| 2026-05-04 15:50 | 21.72393 | 114.86189 | 32597 ft | 495 kts | 141° |
| 2026-05-04 15:50 | 21.69982 | 114.88761 | 33133 ft | 495 kts | 141° |
| 2026-05-04 15:50 | 21.67510 | 114.91402 | 33680 ft | 494 kts | 141° |
| 2026-05-04 15:51 | 21.65100 | 114.93973 | 34164 ft | 495 kts | 141° |
| 2026-05-04 15:51 | 21.62656 | 114.96576 | 34631 ft | 494 kts | 141° |
| 2026-05-04 15:51 | 21.60213 | 114.99170 | 35110 ft | 493 kts | 140° |
| 2026-05-04 15:51 | 21.57775 | 115.01763 | 35593 ft | 492 kts | 140° |
| 2026-05-04 15:52 | 21.55345 | 115.04345 | 36079 ft | 490 kts | 140° |
| 2026-05-04 15:52 | 21.52922 | 115.06921 | 36564 ft | 489 kts | 140° |
| 2026-05-04 15:52 | 21.50504 | 115.09493 | 36949 ft | 491 kts | 140° |
| 2026-05-04 15:52 | 21.48078 | 115.12073 | 37063 ft | 490 kts | 140° |
| 2026-05-04 15:53 | 21.43246 | 115.17216 | 37058 ft | 489 kts | 140° |
| 2026-05-04 15:53 | 21.38411 | 115.22351 | 37048 ft | 488 kts | 140° |
| 2026-05-04 15:54 | 21.33611 | 115.27435 | 37032 ft | 488 kts | 140° |
| 2026-05-04 15:54 | 21.29554 | 115.31725 | 37041 ft | 488 kts | 140° |
| 2026-05-04 15:55 | 21.24733 | 115.36836 | 37045 ft | 488 kts | 140° |
| 2026-05-04 15:55 | 21.19912 | 115.41934 | 37041 ft | 488 kts | 140° |
| 2026-05-04 15:56 | 21.15070 | 115.47047 | 37032 ft | 488 kts | 140° |
| 2026-05-04 15:56 | 21.09453 | 115.52972 | 37035 ft | 488 kts | 140° |
| 2026-05-04 15:57 | 21.05423 | 115.57219 | 37035 ft | 488 kts | 140° |
| 2026-05-04 15:57 | 21.00594 | 115.62303 | 37037 ft | 487 kts | 140° |
| 2026-05-04 15:58 | 20.95746 | 115.67397 | 37029 ft | 487 kts | 140° |
| 2026-05-04 15:58 | 20.90915 | 115.72482 | 37029 ft | 487 kts | 140° |
| 2026-05-04 15:59 | 20.86108 | 115.77528 | 37023 ft | 486 kts | 140° |
| 2026-05-04 15:59 | 20.81278 | 115.82594 | 37026 ft | 486 kts | 140° |
| 2026-05-04 16:00 | 20.76453 | 115.87650 | 37025 ft | 485 kts | 140° |
| 2026-05-04 16:00 | 20.71629 | 115.92700 | 37025 ft | 485 kts | 140° |
| 2026-05-04 16:01 | 20.66816 | 115.97739 | 37025 ft | 485 kts | 140° |
| 2026-05-04 16:01 | 20.61995 | 116.02770 | 37022 ft | 484 kts | 140° |
| 2026-05-04 16:02 | 20.57176 | 116.07795 | 37022 ft | 484 kts | 140° |
| 2026-05-04 16:03 | 20.49965 | 116.15321 | 37021 ft | 483 kts | 140° |
| 2026-05-04 16:03 | 20.45158 | 116.20331 | 37024 ft | 483 kts | 140° |
| 2026-05-04 16:04 | 20.40356 | 116.25330 | 37014 ft | 482 kts | 140° |
| 2026-05-04 16:04 | 20.33178 | 116.32791 | 37016 ft | 482 kts | 140° |
| 2026-05-04 16:05 | 20.28364 | 116.37784 | 37013 ft | 482 kts | 140° |
| 2026-05-04 16:06 | 20.21155 | 116.45254 | 37010 ft | 482 kts | 140° |
| 2026-05-04 16:07 | 20.11572 | 116.55183 | 37004 ft | 482 kts | 140° |
| 2026-05-04 16:08 | 20.01964 | 116.65122 | 37007 ft | 481 kts | 140° |
| 2026-05-04 16:09 | 19.90504 | 116.78165 | 37004 ft | 482 kts | 136° |
| 2026-05-04 16:10 | 19.81463 | 116.88638 | 36997 ft | 481 kts | 136° |
| 2026-05-04 16:11 | 19.72407 | 116.99108 | 36996 ft | 480 kts | 136° |
| 2026-05-04 16:12 | 19.58870 | 117.14743 | 36989 ft | 479 kts | 136° |
| 2026-05-04 16:13 | 19.49852 | 117.25129 | 36986 ft | 477 kts | 136° |
| 2026-05-04 16:14 | 19.40890 | 117.35432 | 36985 ft | 476 kts | 136° |
| 2026-05-04 16:16 | 19.29668 | 117.48308 | 36976 ft | 475 kts | 136° |
| 2026-05-04 16:17 | 19.18467 | 117.61130 | 36969 ft | 474 kts | 136° |
| 2026-05-04 16:18 | 19.09508 | 117.71363 | 36974 ft | 473 kts | 136° |
| 2026-05-04 16:19 | 18.98375 | 117.84067 | 36964 ft | 473 kts | 136° |
| 2026-05-04 16:20 | 18.87167 | 117.96811 | 36963 ft | 474 kts | 136° |
| 2026-05-04 16:22 | 18.75951 | 118.09544 | 36958 ft | 474 kts | 136° |
| 2026-05-04 16:23 | 18.62510 | 118.24764 | 36952 ft | 473 kts | 136° |
| 2026-05-04 16:25 | 18.49040 | 118.39993 | 36947 ft | 472 kts | 136° |
| 2026-05-04 16:26 | 18.33349 | 118.57684 | 36941 ft | 472 kts | 136° |
| 2026-05-04 16:28 | 18.22162 | 118.70252 | 36935 ft | 471 kts | 136° |
| 2026-05-04 16:29 | 18.06490 | 118.87831 | 36924 ft | 470 kts | 136° |
| 2026-05-04 16:31 | 17.95277 | 119.00358 | 36918 ft | 470 kts | 136° |
| 2026-05-04 16:32 | 17.81895 | 119.15314 | 36920 ft | 469 kts | 136° |
| 2026-05-04 16:33 | 17.72938 | 119.25287 | 36911 ft | 469 kts | 136° |
| 2026-05-04 16:34 | 17.66224 | 119.32755 | 36910 ft | 468 kts | 136° |
| 2026-05-04 16:35 | 17.52849 | 119.47614 | 36904 ft | 468 kts | 136° |
| 2026-05-04 16:36 | 17.46210 | 119.54975 | 36902 ft | 468 kts | 136° |
| 2026-05-04 16:37 | 17.39544 | 119.62354 | 36899 ft | 468 kts | 136° |
| 2026-05-04 16:38 | 17.30622 | 119.72223 | 36901 ft | 467 kts | 136° |
| 2026-05-04 16:39 | 17.19475 | 119.84534 | 36897 ft | 467 kts | 136° |
| 2026-05-04 16:40 | 17.10528 | 119.94391 | 36894 ft | 467 kts | 136° |
| 2026-05-04 16:41 | 16.99373 | 120.06669 | 36901 ft | 467 kts | 136° |
| 2026-05-04 16:43 | 16.88182 | 120.18967 | 36908 ft | 467 kts | 136° |
| 2026-05-04 16:43 | 16.83723 | 120.23856 | 36673 ft | 459 kts | 136° |
| 2026-05-04 16:43 | 16.81501 | 120.26288 | 35727 ft | 465 kts | 136° |
| 2026-05-04 16:44 | 16.73218 | 120.35183 | 33029 ft | 459 kts | 142° |
| 2026-05-04 16:45 | 16.66970 | 120.39005 | 31662 ft | 442 kts | 155° |
| 2026-05-04 16:46 | 16.59740 | 120.42841 | 30120 ft | 429 kts | 155° |
| 2026-05-04 16:46 | 16.53627 | 120.46123 | 28613 ft | 420 kts | 154° |
| 2026-05-04 16:47 | 16.49349 | 120.48423 | 27603 ft | 412 kts | 154° |
| 2026-05-04 16:47 | 16.44294 | 120.51137 | 26425 ft | 404 kts | 154° |
| 2026-05-04 16:48 | 16.36090 | 120.55536 | 24922 ft | 395 kts | 153° |
| 2026-05-04 16:48 | 16.34444 | 120.56419 | 24748 ft | 394 kts | 153° |
| 2026-05-04 16:49 | 16.29583 | 120.59029 | 24277 ft | 392 kts | 153° |
| 2026-05-04 16:49 | 16.24747 | 120.61620 | 23856 ft | 388 kts | 153° |
| 2026-05-04 16:50 | 16.19990 | 120.64165 | 23401 ft | 386 kts | 153° |
| 2026-05-04 16:50 | 16.15233 | 120.66710 | 22880 ft | 381 kts | 153° |
| 2026-05-04 16:51 | 16.10546 | 120.69219 | 22374 ft | 377 kts | 153° |
| 2026-05-04 16:51 | 16.08215 | 120.70465 | 22121 ft | 374 kts | 153° |
| 2026-05-04 16:51 | 16.03615 | 120.72924 | 21624 ft | 370 kts | 153° |
| 2026-05-04 16:52 | 15.99063 | 120.75354 | 21134 ft | 365 kts | 153° |
| 2026-05-04 16:52 | 15.96815 | 120.76555 | 20895 ft | 363 kts | 153° |
| 2026-05-04 16:53 | 15.92363 | 120.78924 | 20431 ft | 360 kts | 153° |
| 2026-05-04 16:53 | 15.85682 | 120.82482 | 19729 ft | 356 kts | 153° |
| 2026-05-04 16:54 | 15.83510 | 120.83638 | 19507 ft | 355 kts | 153° |
| 2026-05-04 16:55 | 15.74769 | 120.88306 | 18603 ft | 351 kts | 153° |
| 2026-05-04 16:55 | 15.70436 | 120.90614 | 18148 ft | 349 kts | 153° |
| 2026-05-04 16:56 | 15.66128 | 120.92906 | 17638 ft | 346 kts | 152° |
| 2026-05-04 16:56 | 15.59743 | 120.96304 | 16889 ft | 342 kts | 152° |
| 2026-05-04 16:57 | 15.57654 | 120.97415 | 16647 ft | 340 kts | 152° |
| 2026-05-04 16:57 | 15.53455 | 120.99643 | 16163 ft | 338 kts | 152° |
| 2026-05-04 16:58 | 15.46868 | 121.01789 | 15927 ft | 337 kts | 187° |
| 2026-05-04 16:58 | 15.44600 | 121.01122 | 15956 ft | 340 kts | 199° |
| 2026-05-04 16:59 | 15.40193 | 120.99320 | 15960 ft | 340 kts | 200° |
| 2026-05-04 17:00 | 15.31352 | 120.95804 | 15708 ft | 339 kts | 199° |
| 2026-05-04 17:00 | 15.24759 | 120.93215 | 15022 ft | 336 kts | 199° |
| 2026-05-04 17:01 | 15.20421 | 120.91514 | 14556 ft | 334 kts | 199° |
| 2026-05-04 17:01 | 15.16084 | 120.89814 | 14116 ft | 332 kts | 199° |
| 2026-05-04 17:02 | 15.11776 | 120.88126 | 13649 ft | 330 kts | 199° |
| 2026-05-04 17:02 | 15.07328 | 120.87434 | 12974 ft | 320 kts | 178° |
| 2026-05-04 17:03 | 15.05107 | 120.87461 | 12439 ft | 319 kts | 177° |
| 2026-05-04 17:03 | 15.02892 | 120.87499 | 11923 ft | 318 kts | 177° |
| 2026-05-04 17:03 | 14.98487 | 120.87553 | 10935 ft | 315 kts | 177° |
| 2026-05-04 17:04 | 14.94165 | 120.87571 | 10087 ft | 309 kts | 177° |
| 2026-05-04 17:04 | 14.89983 | 120.87549 | 9444 ft | 296 kts | 177° |
| 2026-05-04 17:05 | 14.85892 | 120.87531 | 8584 ft | 292 kts | 177° |
| 2026-05-04 17:05 | 14.81849 | 120.87535 | 7746 ft | 288 kts | 177° |
| 2026-05-04 17:06 | 14.77864 | 120.87558 | 6937 ft | 284 kts | 177° |
| 2026-05-04 17:06 | 14.75891 | 120.87576 | 6540 ft | 283 kts | 177° |
| 2026-05-04 17:07 | 14.71969 | 120.87624 | 5991 ft | 280 kts | 177° |
| 2026-05-04 17:07 | 14.70683 | 120.87637 | 5970 ft | 280 kts | 177° |
| 2026-05-04 17:07 | 14.68081 | 120.87661 | 5979 ft | 280 kts | 177° |
| 2026-05-04 17:07 | 14.66160 | 120.87679 | 5810 ft | 273 kts | 177° |
| 2026-05-04 17:08 | 14.64254 | 120.87692 | 5368 ft | 274 kts | 177° |
| 2026-05-04 17:08 | 14.60440 | 120.87694 | 4976 ft | 276 kts | 179° |
| 2026-05-04 17:08 | 14.58586 | 120.87287 | 4704 ft | 275 kts | 201° |
| 2026-05-04 17:09 | 14.57023 | 120.86145 | 4227 ft | 279 kts | 225° |
| 2026-05-04 17:09 | 14.55884 | 120.84526 | 3859 ft | 277 kts | 236° |
| 2026-05-04 17:09 | 14.54881 | 120.82871 | 3652 ft | 265 kts | 237° |
| 2026-05-04 17:10 | 14.53036 | 120.79773 | 3231 ft | 241 kts | 237° |
| 2026-05-04 17:10 | 14.50469 | 120.75465 | 2976 ft | 235 kts | 237° |
| 2026-05-04 17:11 | 14.49610 | 120.74026 | 2987 ft | 235 kts | 237° |
| 2026-05-04 17:11 | 14.48754 | 120.72589 | 2988 ft | 236 kts | 237° |
| 2026-05-04 17:11 | 14.47048 | 120.69706 | 2991 ft | 235 kts | 237° |
| 2026-05-04 17:12 | 14.46204 | 120.68283 | 2990 ft | 235 kts | 236° |
| 2026-05-04 17:12 | 14.43644 | 120.66684 | 2973 ft | 226 kts | 179° |
| 2026-05-04 17:13 | 14.39443 | 120.68513 | 3034 ft | 218 kts | 147° |
| 2026-05-04 17:14 | 14.35589 | 120.70939 | 2969 ft | 214 kts | 130° |
| 2026-05-04 17:14 | 14.34960 | 120.72290 | 2965 ft | 210 kts | 101° |
| 2026-05-04 17:14 | 14.35317 | 120.75119 | 2973 ft | 201 kts | 62° |
| 2026-05-04 17:15 | 14.36138 | 120.76286 | 2995 ft | 201 kts | 54° |
| 2026-05-04 17:15 | 14.37765 | 120.78608 | 2985 ft | 201 kts | 60° |
| 2026-05-04 17:16 | 14.39251 | 120.81052 | 2996 ft | 201 kts | 59° |
| 2026-05-04 17:16 | 14.41296 | 120.84677 | 2974 ft | 172 kts | 62° |
| 2026-05-04 17:17 | 14.41832 | 120.85644 | 2973 ft | 146 kts | 63° |
| 2026-05-04 17:17 | 14.43251 | 120.88210 | 2567 ft | 130 kts | 62° |
| 2026-05-04 17:18 | 14.43698 | 120.89017 | 2406 ft | 130 kts | 62° |
| 2026-05-04 17:18 | 14.44597 | 120.90643 | 2055 ft | 131 kts | 62° |
| 2026-05-04 17:19 | 14.45495 | 120.92265 | 1731 ft | 130 kts | 62° |
| 2026-05-04 17:19 | 14.46389 | 120.93881 | 1391 ft | 129 kts | 62° |
| 2026-05-04 17:20 | 14.47293 | 120.95513 | 1061 ft | 130 kts | 62° |
| 2026-05-04 17:20 | 14.48189 | 120.97134 | 721 ft | 131 kts | 62° |
| 2026-05-04 17:20 | 14.48642 | 120.97952 | 557 ft | 131 kts | 62° |
| 2026-05-04 17:21 | 14.49548 | 120.99573 | 204 ft | 131 kts | 63° |
| 2026-05-04 17:21 | 14.50408 | 121.01141 | 57 ft | 104 kts | 58° |
| 2026-05-04 17:22 | 14.50671 | 121.01619 | 63 ft | 47 kts | 62° |
| 2026-05-04 17:22 | 14.50797 | 121.01853 | 59 ft | 37 kts | 58° |
| 2026-05-04 17:23 | 14.51029 | 121.01929 | 71 ft | 14 kts | 315° |
| 2026-05-04 17:23 | 14.51104 | 121.01853 | 60 ft | 16 kts | 315° |
| 2026-05-04 17:23 | 14.51217 | 121.01734 | 61 ft | 12 kts | 312° |
| 2026-05-04 17:24 | 14.51262 | 121.01684 | 60 ft | 10 kts | 314° |
| 2026-05-04 17:24 | 14.51407 | 121.01567 | 57 ft | 6 kts | 29° |
| 2026-05-04 17:25 | 14.51419 | 121.01579 | 58 ft | 2 kts | 49° |
| 2026-05-04 17:25 | 14.51449 | 121.01604 | 60 ft | 1 kts | 25° |
| 2026-05-04 17:26 | 14.51487 | 121.01638 | 58 ft | 6 kts | 44° |
| 2026-05-04 17:26 | 14.51627 | 121.01776 | 52 ft | 8 kts | 29° |
| 2026-05-04 17:27 | 14.51713 | 121.01756 | 52 ft | 1 kts | 319° |
| 2026-05-04 17:27 | 14.51725 | 121.01718 | 53 ft | 1 kts | 270° |
| 2026-05-04 17:28 | 14.51705 | 121.01666 | 55 ft | 0 kts | 218° |
| 2026-05-04 17:29 | 14.51697 | 121.01657 | 55 ft | 0 kts | 226° |